createdAt,value
2023-03-28T00:01:39.926Z,2.65
2023-03-28T00:04:11.315Z,3.35
2023-03-28T00:06:39.462Z,2.78
2023-03-28T00:09:07.313Z,2.58
2023-03-28T00:11:35.004Z,2.10
2023-03-28T00:14:05.157Z,2.28
2023-03-28T00:16:35.148Z,2.08
2023-03-28T00:19:05.633Z,1.65
2023-03-28T00:21:35.646Z,2.35
2023-03-28T00:24:05.397Z,2.30
2023-03-28T00:26:36.290Z,2.70
2023-03-28T00:29:09.032Z,2.55
2023-03-28T00:31:39.097Z,2.42
2023-03-28T00:34:07.447Z,2.03
2023-03-28T00:36:39.023Z,1.95
2023-03-28T00:39:07.547Z,2.35
2023-03-28T00:41:39.776Z,2.15
2023-03-28T00:44:42.440Z,2.10
2023-03-28T00:47:17.839Z,2.28
2023-03-28T00:49:49.502Z,1.93
2023-03-28T00:52:18.882Z,1.83
2023-03-28T00:54:48.150Z,2.13
2023-03-28T00:57:17.657Z,2.40
2023-03-28T00:59:46.971Z,1.85
2023-03-28T01:02:14.746Z,2.20
2023-03-28T01:04:46.424Z,2.20
2023-03-28T01:07:16.298Z,2.40
2023-03-28T01:09:44.372Z,2.00
2023-03-28T01:12:12.812Z,1.95
2023-03-28T01:14:41.488Z,2.10
2023-03-28T01:17:10.793Z,2.28
2023-03-28T01:19:58.710Z,1.80
2023-03-28T01:23:11.087Z,1.48
2023-03-28T01:26:15.236Z,1.67
2023-03-28T01:29:06.710Z,2.17
2023-03-28T01:32:00.418Z,1.95
2023-03-28T01:34:52.926Z,2.00
2023-03-28T01:37:32.810Z,2.13
2023-03-28T01:40:13.036Z,2.03
2023-03-28T01:42:50.961Z,1.98
2023-03-28T01:45:23.996Z,1.73
2023-03-28T01:48:02.157Z,2.42
2023-03-28T01:50:36.808Z,2.40
2023-03-28T01:53:13.434Z,2.20
2023-03-28T01:55:48.646Z,2.33
2023-03-28T01:58:23.809Z,2.50
2023-03-28T02:00:57.250Z,2.25
2023-03-28T02:03:28.049Z,2.50
2023-03-28T02:05:58.380Z,2.55
2023-03-28T02:08:31.662Z,2.17
2023-03-28T02:11:00.157Z,3.00
2023-03-28T02:13:32.214Z,2.95
2023-03-28T02:16:03.023Z,4.10
2023-03-28T02:18:34.888Z,3.47
2023-03-28T02:21:08.028Z,3.22
2023-03-28T02:23:40.417Z,3.50
2023-03-28T02:26:08.275Z,2.97
2023-03-28T02:28:37.766Z,2.60
2023-03-28T02:31:07.077Z,3.08
2023-03-28T02:33:38.898Z,2.83
2023-03-28T02:36:16.632Z,3.03
2023-03-28T02:39:00.453Z,2.53
2023-03-28T02:41:37.825Z,3.67
2023-03-28T02:44:23.210Z,3.72
2023-03-28T02:47:06.088Z,3.83
2023-03-28T02:49:50.347Z,3.05
2023-03-28T02:52:30.501Z,2.78
2023-03-28T02:55:03.130Z,3.08
2023-03-28T02:57:34.160Z,2.70
2023-03-28T03:00:12.545Z,2.40
2023-03-28T03:02:42.902Z,3.13
2023-03-28T03:05:11.738Z,2.35
2023-03-28T03:07:39.744Z,3.47
2023-03-28T03:10:12.029Z,1.70
2023-03-28T03:12:40.181Z,1.60
2023-03-28T03:15:09.121Z,1.67
2023-03-28T03:17:36.959Z,2.08
2023-03-28T03:20:06.801Z,1.80
2023-03-28T03:22:36.321Z,2.10
2023-03-28T03:25:06.502Z,1.75
2023-03-28T03:27:36.979Z,1.70
2023-03-28T03:30:06.442Z,2.30
2023-03-28T03:32:34.270Z,2.25
2023-03-28T03:35:02.100Z,2.22
2023-03-28T03:37:29.818Z,3.10
2023-03-28T03:39:57.604Z,1.80
2023-03-28T03:42:25.825Z,2.40
2023-03-28T03:44:55.304Z,2.10
2023-03-28T03:47:23.075Z,2.05
2023-03-28T03:49:51.001Z,1.92
2023-03-28T03:52:18.689Z,2.90
2023-03-28T03:54:46.570Z,2.25
2023-03-28T03:57:14.431Z,2.22
2023-03-28T03:59:42.125Z,2.42
2023-03-28T04:02:12.062Z,2.10
2023-03-28T04:04:41.377Z,1.77
2023-03-28T04:07:09.183Z,2.20
2023-03-28T04:09:36.897Z,2.13
2023-03-28T04:12:05.581Z,2.03
2023-03-28T04:14:33.363Z,2.00
2023-03-28T04:17:01.865Z,2.03
2023-03-28T04:19:31.055Z,2.22
2023-03-28T04:21:59.126Z,2.22
2023-03-28T04:24:26.846Z,2.58
2023-03-28T04:26:55.963Z,2.75
2023-03-28T04:29:30.416Z,2.10
2023-03-28T04:31:58.786Z,2.00
2023-03-28T04:34:29.792Z,2.90
2023-03-28T04:37:01.556Z,2.50
2023-03-28T04:39:30.242Z,2.05
2023-03-28T04:42:01.677Z,2.50
2023-03-28T04:44:30.118Z,2.38
2023-03-28T04:46:58.143Z,2.28
2023-03-28T04:49:26.481Z,2.60
2023-03-28T04:51:54.279Z,4.00
2023-03-28T04:54:23.427Z,3.30
2023-03-28T04:56:51.260Z,2.75
2023-03-28T04:59:19.642Z,2.40
2023-03-28T05:01:49.823Z,2.72
2023-03-28T05:04:18.369Z,3.13
2023-03-28T05:06:46.285Z,2.47
2023-03-28T05:09:14.418Z,3.20
2023-03-28T05:11:44.003Z,2.70
2023-03-28T05:14:12.010Z,3.55
2023-03-28T05:16:39.730Z,2.90
2023-03-28T05:19:09.873Z,2.90
2023-03-28T05:21:37.672Z,3.67
2023-03-28T05:24:06.036Z,3.03
2023-03-28T05:26:33.821Z,2.97
2023-03-28T05:29:02.952Z,2.90
2023-03-28T05:31:31.202Z,3.03
2023-03-28T05:33:58.911Z,3.17
2023-03-28T05:36:27.155Z,3.53
2023-03-28T05:38:54.903Z,3.17
2023-03-28T05:41:23.358Z,2.17
2023-03-28T05:43:51.112Z,3.38
2023-03-28T05:46:20.299Z,3.28
2023-03-28T05:48:49.477Z,3.25
2023-03-28T05:51:17.914Z,3.15
2023-03-28T05:53:45.649Z,3.78
2023-03-28T05:56:13.477Z,3.30
2023-03-28T05:58:41.641Z,3.13
2023-03-28T06:01:09.875Z,3.05
2023-03-28T06:03:40.173Z,3.40
2023-03-28T06:06:09.011Z,4.78
2023-03-28T06:08:37.053Z,4.65
2023-03-28T06:11:05.299Z,4.50
2023-03-28T06:13:33.005Z,3.78
2023-03-28T06:16:00.948Z,4.15
2023-03-28T06:18:28.731Z,3.65
2023-03-28T06:20:58.134Z,3.42
2023-03-28T06:23:26.108Z,3.35
2023-03-28T06:25:53.811Z,4.20
2023-03-28T06:28:21.588Z,3.38
2023-03-28T06:30:50.301Z,4.03
2023-03-28T06:33:18.121Z,4.05
2023-03-28T06:35:46.161Z,4.00
2023-03-28T06:38:15.322Z,3.80
2023-03-28T06:40:43.022Z,3.45
2023-03-28T06:43:10.736Z,4.50
2023-03-28T06:45:38.411Z,3.03
2023-03-28T06:48:06.408Z,3.35
2023-03-28T06:50:34.241Z,3.00
2023-03-28T06:53:02.759Z,2.75
2023-03-28T06:55:31.792Z,2.78
2023-03-28T06:57:59.573Z,2.70
2023-03-28T07:00:27.401Z,2.70
2023-03-28T07:02:55.440Z,2.85
2023-03-28T07:05:23.267Z,2.22
2023-03-28T07:07:51.170Z,2.67
2023-03-28T07:10:19.359Z,2.13
2023-03-28T07:12:48.790Z,2.13
2023-03-28T07:15:18.978Z,2.50
2023-03-28T07:17:47.260Z,2.45
2023-03-28T07:20:15.173Z,2.20
2023-03-28T07:22:42.916Z,2.55
2023-03-28T07:25:11.152Z,2.80
2023-03-28T07:27:39.213Z,2.50
2023-03-28T07:30:09.710Z,2.42
2023-03-28T07:32:48.122Z,2.42
2023-03-28T07:35:20.541Z,2.15
2023-03-28T07:37:48.392Z,2.38
2023-03-28T07:40:16.461Z,2.17
2023-03-28T07:42:44.169Z,3.45
2023-03-28T07:45:13.372Z,2.40
2023-03-28T07:47:41.173Z,2.30
2023-03-28T07:50:10.128Z,2.40
2023-03-28T07:52:40.904Z,2.40
2023-03-28T07:55:09.189Z,2.60
2023-03-28T07:57:36.905Z,2.47
2023-03-28T08:00:13.915Z,2.38
2023-03-28T08:02:45.611Z,2.30
2023-03-28T08:05:15.436Z,2.50
2023-03-28T08:07:46.445Z,2.20
2023-03-28T08:10:16.607Z,2.28
2023-03-28T08:12:46.330Z,2.45
2023-03-28T08:15:16.176Z,2.03
2023-03-28T08:17:47.524Z,2.53
2023-03-28T08:20:16.847Z,2.40
2023-03-28T08:22:46.986Z,2.30
2023-03-28T08:25:16.705Z,2.22
2023-03-28T08:27:46.586Z,2.10
2023-03-28T08:30:16.521Z,2.45
2023-03-28T08:32:49.025Z,3.28
2023-03-28T08:35:19.255Z,3.78
2023-03-28T08:37:49.085Z,1.85
2023-03-28T08:40:22.082Z,2.08
2023-03-28T08:43:28.295Z,2.47
2023-03-28T08:45:59.491Z,2.40
2023-03-28T08:48:36.402Z,2.13
2023-03-28T08:51:15.078Z,2.50
2023-03-28T08:53:48.336Z,2.58
2023-03-28T08:56:18.024Z,2.17
2023-03-28T08:58:56.155Z,2.17
2023-03-28T09:01:25.284Z,2.72
2023-03-28T09:03:54.575Z,1.88
2023-03-28T09:06:29.350Z,1.88
2023-03-28T09:09:13.022Z,1.83
2023-03-28T09:11:50.789Z,1.88
2023-03-28T09:14:32.507Z,1.63
2023-03-28T09:17:10.523Z,2.78
2023-03-28T09:19:58.569Z,2.55
2023-03-28T09:22:34.541Z,2.22
2023-03-28T09:25:18.145Z,1.48
2023-03-28T09:27:55.155Z,1.63
2023-03-28T09:30:26.681Z,1.55
2023-03-28T09:32:58.301Z,1.63
2023-03-28T09:35:31.660Z,1.90
2023-03-28T09:38:03.809Z,1.50
2023-03-28T09:40:32.921Z,2.13
2023-03-28T09:43:07.493Z,1.95
2023-03-28T09:45:46.370Z,2.15
2023-03-28T09:48:20.058Z,1.55
2023-03-28T09:50:49.194Z,2.35
2023-03-28T09:53:23.366Z,1.70
2023-03-28T09:56:03.399Z,1.50
2023-03-28T09:58:48.839Z,1.98
2023-03-28T10:01:42.920Z,1.50
2023-03-28T10:04:13.466Z,1.52
2023-03-28T10:06:43.817Z,1.73
2023-03-28T10:09:18.373Z,1.70
2023-03-28T10:11:50.313Z,1.50
2023-03-28T10:14:36.120Z,1.73
2023-03-28T10:17:07.981Z,1.67
2023-03-28T10:19:39.185Z,1.58
2023-03-28T10:22:12.108Z,1.40
2023-03-28T10:24:40.630Z,1.45
2023-03-28T10:27:14.801Z,1.20
2023-03-28T10:29:42.828Z,1.30
2023-03-28T10:32:13.934Z,1.50
2023-03-28T10:34:41.753Z,1.70
2023-03-28T10:37:28.391Z,1.85
2023-03-28T10:40:01.509Z,1.23
2023-03-28T10:42:39.917Z,1.10
2023-03-28T10:45:19.299Z,1.30
2023-03-28T10:47:47.566Z,1.88
2023-03-28T10:50:36.768Z,1.35
2023-03-28T10:53:24.935Z,1.20
2023-03-28T10:56:03.780Z,1.40
2023-03-28T10:58:36.251Z,1.65
2023-03-28T11:01:10.465Z,1.20
2023-03-28T11:03:58.134Z,2.50
2023-03-28T11:06:33.610Z,1.73
2023-03-28T11:09:12.223Z,1.13
2023-03-28T11:11:53.284Z,0.95
2023-03-28T11:14:31.090Z,1.08
2023-03-28T11:17:05.188Z,1.30
2023-03-28T11:19:50.569Z,1.50
2023-03-28T11:22:30.397Z,1.43
2023-03-28T11:25:13.086Z,1.55
2023-03-28T11:27:47.532Z,1.42
2023-03-28T11:30:19.166Z,1.20
2023-03-28T11:32:53.479Z,1.67
2023-03-28T11:35:27.706Z,1.45
2023-03-28T11:38:04.748Z,1.10
2023-03-28T11:40:41.011Z,1.25
2023-03-28T11:43:14.033Z,1.52
2023-03-28T11:45:52.281Z,3.13
2023-03-28T11:48:26.401Z,1.33
2023-03-28T11:51:03.064Z,1.70
2023-03-28T11:53:39.024Z,1.00
2023-03-28T11:56:17.082Z,1.30
2023-03-28T11:58:50.217Z,1.33
2023-03-28T12:01:22.024Z,0.90
2023-03-28T12:04:02.622Z,1.35
2023-03-28T12:06:37.058Z,1.75
2023-03-28T12:09:14.245Z,1.48
2023-03-28T12:11:51.470Z,1.35
2023-03-28T12:14:38.968Z,1.42
2023-03-28T12:17:18.862Z,1.25
2023-03-28T12:19:48.586Z,1.08
2023-03-28T12:22:23.599Z,1.83
2023-03-28T12:24:57.798Z,1.13
2023-03-28T12:27:40.371Z,1.00
2023-03-28T12:30:20.878Z,1.42
2023-03-28T12:32:55.348Z,1.27
2023-03-28T12:35:29.253Z,1.23
2023-03-28T12:38:06.428Z,1.30
2023-03-28T12:40:53.670Z,0.85
2023-03-28T12:43:29.124Z,1.73
2023-03-28T12:46:01.689Z,1.77
2023-03-28T12:48:35.933Z,1.33
2023-03-28T12:51:12.143Z,1.35
2023-03-28T12:53:45.649Z,1.92
2023-03-28T12:56:15.497Z,1.30
2023-03-28T12:58:46.622Z,1.17
2023-03-28T13:01:34.821Z,1.88
2023-03-28T13:04:13.292Z,0.95
2023-03-28T13:06:47.213Z,1.10
2023-03-28T13:09:41.704Z,1.10
2023-03-28T13:12:26.150Z,1.00
2023-03-28T13:15:03.085Z,1.30
2023-03-28T13:17:34.074Z,1.48
2023-03-28T13:20:25.544Z,1.23
2023-03-28T13:22:58.220Z,1.70
2023-03-28T13:25:32.097Z,1.23
2023-03-28T13:28:02.349Z,1.02
2023-03-28T13:30:33.169Z,1.58
2023-03-28T13:33:03.857Z,1.27
2023-03-28T13:35:45.667Z,1.48
2023-03-28T13:38:25.462Z,1.58
2023-03-28T13:40:55.955Z,1.42
2023-03-28T13:43:26.095Z,1.25
2023-03-28T13:45:58.389Z,1.38
2023-03-28T13:48:33.086Z,1.60
2023-03-28T13:51:04.417Z,1.33
2023-03-28T13:53:44.753Z,1.05
2023-03-28T13:56:24.379Z,1.20
2023-03-28T13:58:55.207Z,1.83
2023-03-28T14:01:26.809Z,1.50
2023-03-28T14:03:56.126Z,0.93
2023-03-28T14:06:26.098Z,1.60
2023-03-28T14:08:55.649Z,1.00
2023-03-28T14:11:30.237Z,0.98
2023-03-28T14:14:07.338Z,1.00
2023-03-28T14:16:38.776Z,1.08
2023-03-28T14:19:07.465Z,1.15
2023-03-28T14:21:36.048Z,1.08
2023-03-28T14:24:07.676Z,1.10
2023-03-28T14:26:37.496Z,1.17
2023-03-28T14:29:08.307Z,1.20
2023-03-28T14:31:40.315Z,1.00
2023-03-28T14:34:18.104Z,0.80
2023-03-28T14:36:58.799Z,1.38
2023-03-28T14:39:28.219Z,1.45
2023-03-28T14:41:58.059Z,1.30
2023-03-28T14:44:26.516Z,1.42
2023-03-28T14:46:58.419Z,1.10
2023-03-28T14:49:27.229Z,1.40
2023-03-28T14:51:57.333Z,1.13
2023-03-28T14:54:29.656Z,1.67
2023-03-28T14:56:59.159Z,1.00
2023-03-28T14:59:34.329Z,1.17
2023-03-28T15:02:06.150Z,1.00
2023-03-28T15:04:34.732Z,1.55
2023-03-28T15:07:02.577Z,1.45
2023-03-28T15:09:33.033Z,2.15
2023-03-28T15:12:05.430Z,1.20
2023-03-28T15:14:38.538Z,1.50
2023-03-28T15:17:07.833Z,0.95
2023-03-28T15:19:38.034Z,1.10
2023-03-28T15:22:10.826Z,1.05
2023-03-28T15:24:39.549Z,1.33
2023-03-28T15:27:09.570Z,1.35
2023-03-28T15:29:39.726Z,1.73
2023-03-28T15:32:15.940Z,1.48
2023-03-28T15:34:46.779Z,1.40
2023-03-28T15:37:21.698Z,1.35
2023-03-28T15:39:50.904Z,1.27
2023-03-28T15:42:36.268Z,1.10
2023-03-28T15:45:37.218Z,1.20
2023-03-28T15:48:06.660Z,1.48
2023-03-28T15:50:37.330Z,1.20
2023-03-28T15:53:07.079Z,1.30
2023-03-28T15:55:35.946Z,1.10
2023-03-28T15:58:05.983Z,1.38
2023-03-28T16:00:39.939Z,1.25
2023-03-28T16:03:34.496Z,1.52
2023-03-28T16:06:41.024Z,1.35
2023-03-28T16:09:16.665Z,2.13
2023-03-28T16:11:45.397Z,1.70
2023-03-28T16:14:17.080Z,2.13
2023-03-28T16:16:45.523Z,1.52
2023-03-28T16:19:21.530Z,1.38
2023-03-28T16:21:49.561Z,1.17
2023-03-28T16:24:19.630Z,1.50
2023-03-28T16:26:48.216Z,1.50
2023-03-28T16:29:16.126Z,1.30
2023-03-28T16:31:44.417Z,1.30
2023-03-28T16:34:12.310Z,1.30
2023-03-28T16:36:41.523Z,1.42
2023-03-28T16:39:09.359Z,1.20
2023-03-28T16:41:37.617Z,1.80
2023-03-28T16:44:06.150Z,1.50
2023-03-28T16:46:34.021Z,1.52
2023-03-28T16:49:01.862Z,1.35
2023-03-28T16:51:29.818Z,1.55
2023-03-28T16:53:58.904Z,1.40
2023-03-28T16:56:28.380Z,1.45
2023-03-28T16:58:56.270Z,1.50
2023-03-28T17:01:24.245Z,1.52
2023-03-28T17:03:53.540Z,1.25
2023-03-28T17:06:21.768Z,1.42
2023-03-28T17:08:53.125Z,1.38
2023-03-28T17:11:23.216Z,1.10
2023-03-28T17:13:53.212Z,1.50
2023-03-28T17:16:22.314Z,1.42
2023-03-28T17:18:50.906Z,1.90
2023-03-28T17:21:19.840Z,1.17
2023-03-28T17:23:49.102Z,1.15
2023-03-28T17:26:17.501Z,1.40
2023-03-28T17:28:46.629Z,1.55
2023-03-28T17:31:17.730Z,1.17
2023-03-28T17:33:46.427Z,1.25
2023-03-28T17:36:21.785Z,1.13
2023-03-28T17:38:50.727Z,1.45
2023-03-28T17:41:18.867Z,1.77
2023-03-28T17:43:47.899Z,0.93
2023-03-28T17:46:16.246Z,1.08
2023-03-28T17:48:44.203Z,1.08
2023-03-28T17:51:12.782Z,0.85
2023-03-28T17:53:42.580Z,1.38
2023-03-28T17:56:12.149Z,1.02
2023-03-28T17:58:40.330Z,1.30
2023-03-28T18:01:12.058Z,1.40
2023-03-28T18:03:40.144Z,2.05
2023-03-28T18:06:09.860Z,1.30
2023-03-28T18:08:37.774Z,1.35
2023-03-28T18:11:07.721Z,1.85
2023-03-28T18:13:36.528Z,2.80
2023-03-28T18:16:05.262Z,2.22
2023-03-28T18:18:34.543Z,3.30
2023-03-28T18:21:04.088Z,2.00
2023-03-28T18:23:32.139Z,1.75
2023-03-28T18:26:00.211Z,2.05
2023-03-28T18:28:28.179Z,3.20
2023-03-28T18:30:56.160Z,2.55
2023-03-28T18:33:24.091Z,5.32
2023-03-28T18:35:53.166Z,3.50
2023-03-28T18:38:20.973Z,2.85
2023-03-28T18:40:53.297Z,1.90
2023-03-28T18:43:21.294Z,2.55
2023-03-28T18:45:54.392Z,2.25
2023-03-28T18:48:22.817Z,1.83
2023-03-28T18:50:50.932Z,2.40
2023-03-28T18:53:20.216Z,1.95
2023-03-28T18:55:47.911Z,1.50
2023-03-28T18:58:16.048Z,1.88
2023-03-28T19:00:43.778Z,1.73
2023-03-28T19:03:17.636Z,1.85
2023-03-28T19:05:45.534Z,2.08
2023-03-28T19:08:13.273Z,2.38
2023-03-28T19:10:47.336Z,2.80
2023-03-28T19:13:15.129Z,4.20
2023-03-28T19:15:42.998Z,9.75
2023-03-28T19:18:11.004Z,6.13
2023-03-28T19:20:39.187Z,4.88
2023-03-28T19:23:07.564Z,5.28
2023-03-28T19:25:35.406Z,3.72
2023-03-28T19:28:04.652Z,3.47
2023-03-28T19:30:32.526Z,3.65
2023-03-28T19:33:00.352Z,3.20
2023-03-28T19:35:28.199Z,3.28
2023-03-28T19:37:56.093Z,3.03
2023-03-28T19:40:25.774Z,3.00
2023-03-28T19:42:53.623Z,3.40
2023-03-28T19:45:22.846Z,3.63
2023-03-28T19:47:51.711Z,3.75
2023-03-28T19:50:20.688Z,4.50
2023-03-28T19:52:48.581Z,4.10
2023-03-28T19:55:16.725Z,6.03
2023-03-28T19:57:44.585Z,5.70
2023-03-28T20:00:13.246Z,6.05
2023-03-28T20:02:42.621Z,5.53
2023-03-28T20:05:11.253Z,6.35
2023-03-28T20:07:39.151Z,5.97
2023-03-28T20:10:07.949Z,4.75
2023-03-28T20:12:39.702Z,4.88
2023-03-28T20:15:09.212Z,3.13
2023-03-28T20:17:37.217Z,2.67
2023-03-28T20:20:08.084Z,4.05
2023-03-28T20:22:36.125Z,3.38
2023-03-28T20:25:04.186Z,3.42
2023-03-28T20:27:32.792Z,3.20
2023-03-28T20:30:00.684Z,2.90
2023-03-28T20:32:28.481Z,3.50
2023-03-28T20:34:56.244Z,2.70
2023-03-28T20:37:25.440Z,3.00
2023-03-28T20:39:53.436Z,2.42
2023-03-28T20:42:21.192Z,3.38
2023-03-28T20:44:48.926Z,2.22
2023-03-28T20:47:21.995Z,2.53
2023-03-28T20:49:49.771Z,2.33
2023-03-28T20:52:17.516Z,1.00
2023-03-28T20:54:46.766Z,1.35
2023-03-28T20:57:14.720Z,1.60
2023-03-28T20:59:42.603Z,1.45
2023-03-28T21:02:10.723Z,1.40
2023-03-28T21:04:39.117Z,0.90
2023-03-28T21:07:06.958Z,1.20
2023-03-28T21:09:34.693Z,1.55
2023-03-28T21:12:03.844Z,1.90
2023-03-28T21:14:31.709Z,2.28
2023-03-28T21:16:59.907Z,2.65
2023-03-28T21:19:27.837Z,2.22
2023-03-28T21:21:56.992Z,1.98
2023-03-28T21:24:24.716Z,1.65
2023-03-28T21:26:52.488Z,1.75
2023-03-28T21:29:21.718Z,1.70
2023-03-28T21:31:49.514Z,1.42
2023-03-28T21:34:17.342Z,2.15
2023-03-28T21:36:45.092Z,2.22
2023-03-28T21:39:13.201Z,1.50
2023-03-28T21:41:41.006Z,1.90
2023-03-28T21:44:08.958Z,1.70
2023-03-28T21:46:38.060Z,1.42
2023-03-28T21:49:05.820Z,1.40
2023-03-28T21:51:33.692Z,1.77
2023-03-28T21:54:01.456Z,1.65
2023-03-28T21:56:29.445Z,1.60
2023-03-28T21:58:57.240Z,1.42
2023-03-28T22:01:25.185Z,1.92
2023-03-28T22:03:54.432Z,1.95
2023-03-28T22:06:22.333Z,3.78
2023-03-28T22:08:52.386Z,4.18
2023-03-28T22:11:27.638Z,2.83
2023-03-28T22:14:02.403Z,2.00
2023-03-28T22:16:31.800Z,1.55
2023-03-28T22:19:01.424Z,0.88
2023-03-28T22:21:31.372Z,1.55
2023-03-28T22:23:59.998Z,1.00
2023-03-28T22:26:28.184Z,1.20
2023-03-28T22:28:57.412Z,1.20
2023-03-28T22:31:25.913Z,0.90
2023-03-28T22:33:53.823Z,1.05
2023-03-28T22:36:23.022Z,1.52
2023-03-28T22:38:51.778Z,1.40
2023-03-28T22:41:19.588Z,1.30
2023-03-28T22:43:47.796Z,1.67
2023-03-28T22:46:16.159Z,1.10
2023-03-28T22:48:44.175Z,1.40
2023-03-28T22:51:12.451Z,1.48
2023-03-28T22:53:41.551Z,1.27
2023-03-28T22:56:09.932Z,1.25
2023-03-28T22:58:37.644Z,1.23
2023-03-28T23:01:06.035Z,1.42
2023-03-28T23:03:33.894Z,1.60
2023-03-28T23:06:06.641Z,1.80
2023-03-28T23:08:34.805Z,2.10
2023-03-28T23:11:04.152Z,2.00
2023-03-28T23:13:32.063Z,2.03
2023-03-28T23:15:59.869Z,1.80
2023-03-28T23:18:27.709Z,1.90
2023-03-28T23:20:55.412Z,1.67
2023-03-28T23:23:23.300Z,2.05
2023-03-28T23:25:51.410Z,2.28
2023-03-28T23:28:20.598Z,1.45
2023-03-28T23:30:48.346Z,1.63
2023-03-28T23:33:18.461Z,1.95
2023-03-28T23:35:48.192Z,1.73
2023-03-28T23:38:17.354Z,1.70
2023-03-28T23:40:45.955Z,1.30
2023-03-28T23:43:14.082Z,2.47
2023-03-28T23:45:44.662Z,2.28
2023-03-28T23:48:12.990Z,1.88
2023-03-28T23:50:40.958Z,2.17
2023-03-28T23:53:09.325Z,2.00
2023-03-28T23:55:37.167Z,1.80
2023-03-28T23:58:04.990Z,1.90
